createdAt,value
2018-09-26T00:01:37.784Z,10.50
2018-09-26T00:04:21.362Z,10.80
2018-09-26T00:06:50.450Z,10.53
2018-09-26T00:09:19.410Z,10.57
2018-09-26T00:11:48.526Z,10.50
2018-09-26T00:14:17.518Z,10.23
2018-09-26T00:16:46.566Z,10.23
2018-09-26T00:19:15.607Z,9.90
2018-09-26T00:21:44.638Z,10.03
2018-09-26T00:24:13.597Z,9.50
2018-09-26T00:26:42.567Z,9.93
2018-09-26T00:29:11.634Z,9.10
2018-09-26T00:31:40.582Z,9.37
2018-09-26T00:34:09.549Z,9.27
2018-09-26T00:36:38.551Z,9.43
2018-09-26T00:39:07.762Z,9.77
2018-09-26T00:41:36.957Z,9.60
2018-09-26T00:44:05.918Z,9.57
2018-09-26T00:46:34.921Z,9.80
2018-09-26T00:49:03.946Z,9.00
2018-09-26T00:51:33.043Z,9.40
2018-09-26T00:54:02.042Z,9.80
2018-09-26T00:56:31.064Z,10.20
2018-09-26T00:59:00.147Z,9.60
2018-09-26T01:01:29.221Z,9.20
2018-09-26T01:03:58.222Z,8.80
2018-09-26T01:06:27.179Z,9.57
2018-09-26T01:08:56.259Z,9.40
2018-09-26T01:11:25.238Z,9.83
2018-09-26T01:13:54.363Z,9.50
2018-09-26T01:16:23.350Z,9.33
2018-09-26T01:18:52.301Z,9.17
2018-09-26T01:21:21.282Z,8.97
2018-09-26T01:23:50.306Z,9.00
2018-09-26T01:26:19.987Z,9.03
2018-09-26T01:28:48.983Z,9.20
2018-09-26T01:31:18.126Z,9.53
2018-09-26T01:33:47.088Z,9.17
2018-09-26T01:36:16.105Z,9.80
2018-09-26T01:38:45.160Z,9.10
2018-09-26T01:41:14.159Z,9.27
2018-09-26T01:43:43.129Z,9.33
2018-09-26T01:46:12.153Z,9.30
2018-09-26T01:48:41.090Z,9.53
2018-09-26T01:51:10.106Z,9.27
2018-09-26T01:53:39.939Z,9.27
2018-09-26T01:56:08.934Z,9.30
2018-09-26T01:58:37.984Z,8.77
2018-09-26T02:01:07.050Z,9.10
2018-09-26T02:03:36.049Z,9.17
2018-09-26T02:06:05.310Z,9.30
2018-09-26T02:08:34.312Z,9.57
2018-09-26T02:11:03.326Z,9.40
2018-09-26T02:13:32.323Z,8.87
2018-09-26T02:16:01.932Z,9.00
2018-09-26T02:18:30.969Z,9.60
2018-09-26T02:20:59.973Z,9.07
2018-09-26T02:23:29.032Z,9.10
2018-09-26T02:25:58.039Z,9.30
2018-09-26T02:28:26.995Z,9.47
2018-09-26T02:30:55.954Z,9.80
2018-09-26T02:33:24.971Z,9.37
2018-09-26T02:35:53.906Z,9.50
2018-09-26T02:38:22.998Z,9.20
2018-09-26T02:40:51.967Z,8.97
2018-09-26T02:43:20.946Z,9.47
2018-09-26T02:45:49.977Z,8.83
2018-09-26T02:48:24.409Z,9.40
2018-09-26T02:50:53.439Z,9.37
2018-09-26T02:53:22.449Z,8.73
2018-09-26T02:55:51.442Z,9.40
2018-09-26T02:58:20.466Z,9.47
2018-09-26T03:00:49.511Z,9.83
2018-09-26T03:03:18.499Z,9.30
2018-09-26T03:05:47.470Z,9.60
2018-09-26T03:08:16.605Z,9.67
2018-09-26T03:10:45.668Z,10.13
2018-09-26T03:13:14.602Z,9.57
2018-09-26T03:15:43.651Z,9.37
2018-09-26T03:18:12.713Z,9.60
2018-09-26T03:20:41.754Z,9.50
2018-09-26T03:23:10.770Z,9.20
2018-09-26T03:25:39.805Z,9.53
2018-09-26T03:28:08.802Z,9.17
2018-09-26T03:30:37.921Z,9.63
2018-09-26T03:33:06.881Z,9.57
2018-09-26T03:35:36.025Z,9.27
2018-09-26T03:38:05.010Z,9.17
2018-09-26T03:40:33.969Z,9.20
2018-09-26T03:43:02.924Z,8.97
2018-09-26T03:45:31.943Z,9.00
2018-09-26T03:48:00.939Z,9.40
2018-09-26T03:50:29.919Z,9.10
2018-09-26T03:52:58.929Z,9.83
2018-09-26T03:55:27.906Z,9.13
2018-09-26T03:57:56.976Z,10.37
2018-09-26T04:00:26.112Z,9.73
2018-09-26T04:02:55.109Z,10.17
2018-09-26T04:05:24.097Z,10.20
2018-09-26T04:07:53.230Z,10.30
2018-09-26T04:10:22.256Z,10.60
2018-09-26T04:12:51.444Z,10.17
2018-09-26T04:15:20.326Z,9.97
2018-09-26T04:17:49.374Z,9.90
2018-09-26T04:20:18.516Z,9.90
2018-09-26T04:22:47.510Z,9.50
2018-09-26T04:25:16.567Z,9.93
2018-09-26T04:27:45.800Z,9.93
2018-09-26T04:30:14.686Z,9.80
2018-09-26T04:32:43.761Z,9.83
2018-09-26T04:35:12.664Z,10.03
2018-09-26T04:37:41.725Z,10.17
2018-09-26T04:40:11.584Z,10.03
2018-09-26T04:42:40.791Z,10.37
2018-09-26T04:45:09.821Z,10.63
2018-09-26T04:47:39.044Z,10.70
2018-09-26T04:50:08.013Z,11.77
2018-09-26T04:52:38.039Z,10.73
2018-09-26T04:55:07.093Z,10.00
2018-09-26T05:00:07.301Z,10.37
2018-09-26T05:02:36.671Z,10.17
2018-09-26T05:05:05.791Z,10.60
2018-09-26T05:07:35.201Z,10.10
2018-09-26T05:10:04.634Z,9.53
2018-09-26T05:12:33.613Z,10.20
2018-09-26T05:15:02.630Z,10.30
2018-09-26T05:17:31.664Z,10.03
2018-09-26T05:20:00.672Z,10.33
2018-09-26T05:22:29.751Z,9.90
2018-09-26T05:24:58.707Z,9.87
2018-09-26T05:27:27.722Z,10.30
2018-09-26T05:29:56.714Z,9.80
2018-09-26T05:32:25.721Z,9.53
2018-09-26T05:34:54.717Z,10.10
2018-09-26T05:37:23.731Z,10.27
2018-09-26T05:39:52.793Z,9.80
2018-09-26T05:42:21.843Z,9.90
2018-09-26T05:44:50.784Z,9.77
2018-09-26T05:47:19.807Z,10.60
2018-09-26T05:49:48.877Z,10.07
2018-09-26T05:52:17.908Z,9.97
2018-09-26T05:54:46.942Z,9.90
2018-09-26T05:57:15.951Z,9.60
2018-09-26T05:59:44.940Z,10.00
2018-09-26T06:02:14.034Z,9.90
2018-09-26T06:04:43.107Z,9.80
2018-09-26T06:07:12.105Z,10.70
2018-09-26T06:09:41.106Z,13.17
2018-09-26T06:12:10.107Z,10.87
2018-09-26T06:14:39.105Z,10.13
2018-09-26T06:17:08.146Z,10.17
2018-09-26T06:19:37.174Z,10.20
2018-09-26T06:22:06.391Z,10.00
2018-09-26T06:24:35.491Z,10.00
2018-09-26T06:27:04.571Z,9.50
2018-09-26T06:29:33.563Z,10.13
2018-09-26T06:32:02.526Z,9.77
2018-09-26T06:34:31.609Z,10.33
2018-09-26T06:37:00.553Z,10.27
2018-09-26T06:39:29.522Z,10.37
2018-09-26T06:41:58.522Z,10.10
2018-09-26T06:44:27.604Z,10.13
2018-09-26T06:46:56.717Z,10.17
2018-09-26T06:49:25.836Z,13.90
2018-09-26T06:51:54.848Z,12.23
2018-09-26T06:54:23.920Z,10.93
2018-09-26T06:56:52.909Z,11.00
2018-09-26T06:59:21.956Z,10.53
2018-09-26T07:01:52.343Z,10.97
2018-09-26T07:04:21.435Z,11.77
2018-09-26T07:06:50.415Z,11.10
2018-09-26T07:09:19.505Z,10.37
2018-09-26T07:11:48.509Z,10.50
2018-09-26T07:14:17.570Z,9.90
2018-09-26T07:16:46.578Z,9.23
2018-09-26T07:19:15.593Z,9.30
2018-09-26T07:21:44.842Z,9.07
2018-09-26T07:24:13.841Z,10.20
2018-09-26T07:26:42.946Z,9.33
2018-09-26T07:29:11.973Z,9.23
2018-09-26T07:31:41.039Z,9.90
2018-09-26T07:34:10.066Z,8.83
2018-09-26T07:36:39.182Z,7.93
2018-09-26T07:39:09.677Z,8.13
2018-09-26T07:41:39.034Z,7.97
2018-09-26T07:44:08.060Z,7.83
2018-09-26T07:46:37.158Z,7.17
2018-09-26T07:49:06.212Z,7.93
2018-09-26T07:51:35.261Z,6.87
2018-09-26T07:54:04.311Z,6.70
2018-09-26T07:56:33.318Z,6.63
2018-09-26T07:59:02.289Z,6.47
2018-09-26T08:01:31.300Z,6.67
2018-09-26T08:04:00.290Z,6.80
2018-09-26T08:06:29.294Z,7.20
2018-09-26T08:08:58.797Z,6.70
2018-09-26T08:11:27.888Z,6.43
2018-09-26T08:13:56.805Z,6.67
2018-09-26T08:16:25.857Z,6.33
2018-09-26T08:18:55.010Z,6.43
2018-09-26T08:21:24.020Z,6.50
2018-09-26T08:23:53.742Z,5.87
2018-09-26T08:26:22.670Z,6.43
2018-09-26T08:28:51.924Z,6.40
2018-09-26T08:31:20.945Z,6.50
2018-09-26T08:33:50.007Z,6.33
2018-09-26T08:36:19.750Z,6.23
2018-09-26T08:38:48.850Z,5.77
2018-09-26T08:41:17.829Z,6.37
2018-09-26T08:43:46.898Z,5.90
2018-09-26T08:46:15.900Z,6.40
2018-09-26T08:48:44.951Z,6.07
2018-09-26T08:51:13.905Z,5.90
2018-09-26T08:53:42.934Z,5.73
2018-09-26T08:56:18.606Z,6.60
2018-09-26T08:58:47.643Z,6.00
2018-09-26T09:01:22.021Z,6.33
2018-09-26T09:03:51.014Z,6.40
2018-09-26T09:06:20.271Z,6.20
2018-09-26T09:08:49.170Z,5.73
2018-09-26T09:11:18.184Z,6.03
2018-09-26T09:13:47.278Z,5.93
2018-09-26T09:16:16.335Z,6.30
2018-09-26T09:18:45.459Z,5.80
2018-09-26T09:21:14.417Z,6.43
2018-09-26T09:23:43.470Z,5.87
2018-09-26T09:26:12.515Z,5.63
2018-09-26T09:28:41.445Z,5.93
2018-09-26T09:31:10.514Z,6.50
2018-09-26T09:33:39.599Z,6.17
2018-09-26T09:36:08.589Z,6.17
2018-09-26T09:38:37.627Z,5.40
2018-09-26T09:41:06.905Z,5.37
2018-09-26T09:43:36.013Z,5.67
2018-09-26T09:46:05.390Z,5.67
2018-09-26T09:48:34.481Z,5.27
2018-09-26T09:51:03.454Z,4.80
2018-09-26T09:53:32.443Z,5.10
2018-09-26T09:56:01.420Z,4.97
2018-09-26T09:58:30.458Z,5.10
2018-09-26T10:01:04.683Z,5.43
2018-09-26T10:03:33.743Z,5.17
2018-09-26T10:06:02.808Z,4.80
2018-09-26T10:08:31.850Z,4.93
2018-09-26T10:11:00.822Z,5.17
2018-09-26T10:13:30.040Z,5.00
2018-09-26T10:15:59.075Z,5.10
2018-09-26T10:18:28.051Z,5.50
2018-09-26T10:20:57.278Z,5.00
2018-09-26T10:23:26.501Z,4.90
2018-09-26T10:25:55.670Z,4.77
2018-09-26T10:28:24.873Z,4.90
2018-09-26T10:30:54.093Z,4.40
2018-09-26T10:33:23.302Z,4.60
2018-09-26T10:35:52.467Z,4.30
2018-09-26T10:38:21.684Z,4.70
2018-09-26T10:40:50.948Z,4.70
2018-09-26T10:43:20.130Z,4.93
2018-09-26T10:45:49.338Z,4.93
2018-09-26T10:48:18.515Z,4.70
2018-09-26T10:50:47.687Z,4.67
2018-09-26T10:53:16.867Z,4.80
2018-09-26T10:55:46.124Z,4.60
2018-09-26T10:58:15.250Z,4.77
2018-09-26T11:00:44.461Z,4.37
2018-09-26T11:03:13.763Z,4.40
2018-09-26T11:05:42.989Z,4.67
2018-09-26T11:08:12.248Z,4.40
2018-09-26T11:10:41.470Z,4.17
2018-09-26T11:13:10.574Z,4.50
2018-09-26T11:15:39.766Z,3.87
2018-09-26T11:18:08.918Z,4.50
2018-09-26T11:20:38.074Z,4.47
2018-09-26T11:23:07.382Z,4.30
2018-09-26T11:25:36.888Z,4.00
2018-09-26T11:28:06.152Z,3.80
2018-09-26T11:30:35.330Z,4.30
2018-09-26T11:33:05.198Z,4.20
2018-09-26T11:35:34.428Z,4.10
2018-09-26T11:38:03.687Z,4.40
2018-09-26T11:40:32.897Z,4.17
2018-09-26T11:43:02.047Z,4.20
2018-09-26T11:45:31.383Z,4.13
2018-09-26T11:48:00.521Z,4.00
2018-09-26T11:50:29.819Z,3.70
2018-09-26T11:52:59.056Z,3.73
2018-09-26T11:55:28.231Z,3.13
2018-09-26T11:57:57.440Z,3.10
2018-09-26T12:00:26.644Z,2.80
2018-09-26T12:02:57.585Z,2.80
2018-09-26T12:05:26.863Z,2.37
2018-09-26T12:07:56.018Z,2.80
2018-09-26T12:10:25.289Z,2.73
2018-09-26T12:12:54.434Z,2.40
2018-09-26T12:15:23.845Z,2.60
2018-09-26T12:17:52.979Z,2.60
2018-09-26T12:20:22.154Z,2.70
2018-09-26T12:22:51.455Z,3.00
2018-09-26T12:25:20.719Z,2.40
2018-09-26T12:27:49.921Z,2.80
2018-09-26T12:30:19.053Z,2.60
2018-09-26T12:32:48.203Z,2.87
2018-09-26T12:35:17.364Z,2.60
2018-09-26T12:37:46.638Z,2.50
2018-09-26T12:40:15.863Z,2.50
2018-09-26T12:42:45.080Z,2.30
2018-09-26T12:45:14.222Z,2.10
2018-09-26T12:47:43.545Z,2.20
2018-09-26T12:50:12.701Z,2.40
2018-09-26T12:52:43.060Z,2.70
2018-09-26T12:55:12.219Z,2.53
2018-09-26T12:57:41.906Z,3.33
2018-09-26T13:00:11.226Z,3.30
2018-09-26T13:02:40.402Z,2.60
2018-09-26T13:05:09.678Z,2.67
2018-09-26T13:07:38.976Z,2.87
2018-09-26T13:10:08.154Z,2.67
2018-09-26T13:12:37.407Z,2.93
2018-09-26T13:15:07.002Z,3.00
2018-09-26T13:17:36.271Z,2.87
2018-09-26T13:20:06.243Z,3.30
2018-09-26T13:22:35.511Z,3.20
2018-09-26T13:25:04.730Z,3.00
2018-09-26T13:27:34.017Z,3.10
2018-09-26T13:30:03.205Z,3.23
2018-09-26T13:32:32.349Z,3.40
2018-09-26T13:35:01.539Z,3.10
2018-09-26T13:37:30.722Z,3.70
2018-09-26T13:39:59.893Z,3.30
2018-09-26T13:42:29.293Z,3.40
2018-09-26T13:44:58.550Z,3.00
2018-09-26T13:47:27.744Z,3.20
2018-09-26T13:49:57.784Z,3.53
2018-09-26T13:52:26.931Z,3.20
2018-09-26T13:54:56.227Z,3.43
2018-09-26T13:57:25.375Z,3.40
2018-09-26T13:59:54.798Z,2.80
2018-09-26T14:02:24.020Z,3.00
2018-09-26T14:04:53.162Z,3.20
2018-09-26T14:07:22.349Z,4.00
2018-09-26T14:09:51.538Z,3.10
2018-09-26T14:12:20.749Z,3.23
2018-09-26T14:14:49.852Z,3.27
2018-09-26T14:17:19.052Z,3.40
2018-09-26T14:19:48.234Z,3.17
2018-09-26T14:22:17.739Z,3.27
2018-09-26T14:24:46.875Z,3.50
2018-09-26T14:27:16.253Z,3.30
2018-09-26T14:29:46.185Z,3.37
2018-09-26T14:32:17.158Z,3.20
2018-09-26T14:37:16.466Z,3.43
2018-09-26T14:39:45.673Z,3.40
2018-09-26T14:42:14.965Z,3.63
2018-09-26T14:44:44.223Z,3.53
2018-09-26T14:47:13.402Z,3.40
2018-09-26T14:49:42.690Z,3.20
2018-09-26T14:52:11.858Z,3.50
2018-09-26T14:54:41.001Z,3.50
2018-09-26T14:57:10.260Z,3.13
2018-09-26T14:59:39.441Z,3.43
2018-09-26T15:02:08.608Z,3.73
2018-09-26T15:04:37.779Z,3.57
2018-09-26T15:07:06.977Z,3.37
2018-09-26T15:09:36.147Z,3.33
2018-09-26T15:12:05.477Z,3.50
2018-09-26T15:14:34.547Z,3.60
2018-09-26T15:17:03.752Z,3.50
2018-09-26T15:19:32.962Z,3.93
2018-09-26T15:22:02.169Z,3.80
2018-09-26T15:24:31.326Z,3.97
2018-09-26T15:27:00.586Z,3.50
2018-09-26T15:29:29.958Z,3.80
2018-09-26T15:31:59.114Z,3.70
2018-09-26T15:34:28.335Z,3.40
2018-09-26T15:36:57.577Z,3.60
2018-09-26T15:39:26.997Z,3.60
2018-09-26T15:41:56.206Z,3.87
2018-09-26T15:44:25.536Z,3.77
2018-09-26T15:46:56.181Z,3.47
2018-09-26T15:49:25.443Z,4.10
2018-09-26T15:51:54.626Z,3.70
2018-09-26T15:54:23.880Z,4.07
2018-09-26T15:56:53.026Z,3.83
2018-09-26T15:59:22.323Z,3.73
2018-09-26T16:01:51.582Z,3.70
2018-09-26T16:04:20.975Z,3.87
2018-09-26T16:06:50.129Z,4.00
2018-09-26T16:11:49.585Z,3.80
2018-09-26T16:14:18.817Z,4.10
2018-09-26T16:16:48.009Z,3.73
2018-09-26T16:19:17.420Z,4.23
2018-09-26T16:21:46.649Z,4.20
2018-09-26T16:24:15.854Z,4.00
2018-09-26T16:26:45.039Z,4.20
2018-09-26T16:29:14.269Z,4.30
2018-09-26T16:31:43.515Z,4.00
2018-09-26T16:34:12.646Z,4.10
2018-09-26T16:36:41.763Z,4.30
2018-09-26T16:39:13.032Z,4.50
2018-09-26T16:41:43.154Z,4.80
2018-09-26T16:44:12.685Z,4.70
2018-09-26T16:46:41.910Z,5.00
2018-09-26T16:49:11.299Z,4.90
2018-09-26T16:51:40.576Z,5.13
2018-09-26T16:54:10.530Z,5.10
2018-09-26T16:56:39.693Z,5.40
2018-09-26T16:59:08.858Z,5.40
2018-09-26T17:01:38.031Z,5.93
2018-09-26T17:04:07.385Z,6.33
2018-09-26T17:06:36.605Z,6.00
2018-09-26T17:09:07.697Z,5.97
2018-09-26T17:11:36.871Z,6.20
2018-09-26T17:14:06.069Z,6.97
2018-09-26T17:16:35.235Z,6.50
2018-09-26T17:19:04.462Z,6.67
2018-09-26T17:21:33.615Z,6.10
2018-09-26T17:24:02.890Z,6.40
2018-09-26T17:26:32.139Z,6.33
2018-09-26T17:29:01.312Z,6.40
2018-09-26T17:31:30.454Z,6.20
2018-09-26T17:33:59.717Z,6.33
2018-09-26T17:36:28.941Z,6.30
2018-09-26T17:38:58.124Z,6.97
2018-09-26T17:41:27.362Z,6.63
2018-09-26T17:43:56.670Z,6.63
2018-09-26T17:46:25.949Z,7.43
2018-09-26T17:48:55.063Z,7.13
2018-09-26T17:51:24.195Z,7.47
2018-09-26T17:53:53.376Z,7.03
2018-09-26T17:56:22.526Z,7.33
2018-09-26T17:58:51.720Z,7.47
2018-09-26T18:01:21.104Z,7.83
2018-09-26T18:03:50.318Z,7.97
2018-09-26T18:06:19.552Z,7.87
2018-09-26T18:08:49.175Z,6.73
2018-09-26T18:11:18.805Z,7.10
2018-09-26T18:13:48.168Z,6.83
2018-09-26T18:16:17.355Z,7.17
2018-09-26T18:18:46.589Z,7.33
2018-09-26T18:21:15.805Z,7.50
2018-09-26T18:23:45.001Z,7.70
2018-09-26T18:26:14.202Z,7.93
2018-09-26T18:28:43.646Z,8.07
2018-09-26T18:31:13.288Z,8.33
2018-09-26T18:33:42.524Z,10.03
2018-09-26T18:36:11.780Z,9.83
2018-09-26T18:38:43.991Z,8.70
2018-09-26T18:41:13.139Z,9.37
2018-09-26T18:43:42.402Z,8.83
2018-09-26T18:46:11.646Z,8.50
2018-09-26T18:48:40.818Z,8.70
2018-09-26T18:51:10.606Z,9.00
2018-09-26T18:53:40.476Z,9.10
2018-09-26T18:56:09.977Z,9.73
2018-09-26T18:58:39.410Z,9.67
2018-09-26T19:01:08.687Z,10.20
2018-09-26T19:03:39.055Z,10.00
2018-09-26T19:06:09.051Z,9.67
2018-09-26T19:08:39.447Z,9.57
2018-09-26T19:11:08.879Z,9.10
2018-09-26T19:13:38.045Z,8.50
2018-09-26T19:16:07.577Z,8.87
2018-09-26T19:18:36.967Z,7.83
2018-09-26T19:21:06.200Z,8.87
2018-09-26T19:23:35.362Z,9.23
2018-09-26T19:26:04.671Z,9.03
2018-09-26T19:28:33.872Z,9.77
2018-09-26T19:31:03.162Z,8.93
2018-09-26T19:33:32.729Z,9.30
2018-09-26T19:36:01.887Z,9.17
2018-09-26T19:38:31.046Z,9.33
2018-09-26T19:41:00.294Z,9.23
2018-09-26T19:43:29.601Z,9.67
2018-09-26T19:45:58.807Z,9.43
2018-09-26T19:48:27.946Z,8.93
2018-09-26T19:50:57.228Z,9.60
2018-09-26T19:53:26.348Z,9.67
2018-09-26T19:55:55.626Z,9.20
2018-09-26T19:58:24.791Z,9.57
2018-09-26T20:00:53.886Z,9.73
2018-09-26T20:03:23.042Z,9.27
2018-09-26T20:05:52.280Z,10.13
2018-09-26T20:08:21.457Z,10.03
2018-09-26T20:10:50.632Z,10.00
2018-09-26T20:13:21.778Z,9.87
2018-09-26T20:15:51.099Z,9.73
2018-09-26T20:18:20.310Z,10.20
2018-09-26T20:20:49.497Z,10.23
2018-09-26T20:23:19.067Z,11.07
2018-09-26T20:25:48.114Z,9.80
2018-09-26T20:28:17.292Z,9.20
2018-09-26T20:30:46.487Z,9.53
2018-09-26T20:33:15.852Z,9.37
2018-09-26T20:35:45.097Z,9.23
2018-09-26T20:38:14.256Z,9.10
2018-09-26T20:40:43.608Z,9.03
2018-09-26T20:43:12.838Z,8.57
2018-09-26T20:45:42.014Z,9.20
2018-09-26T20:48:11.299Z,8.47
2018-09-26T20:50:40.491Z,8.33
2018-09-26T20:53:09.681Z,9.00
2018-09-26T20:55:38.893Z,9.13
2018-09-26T20:58:08.402Z,9.20
2018-09-26T21:00:37.684Z,8.97
2018-09-26T21:03:06.825Z,4.70
2018-09-26T21:05:35.978Z,5.20
2018-09-26T21:08:05.196Z,5.07
2018-09-26T21:10:34.423Z,4.87
2018-09-26T21:13:03.723Z,4.80
2018-09-26T21:15:32.936Z,5.00
2018-09-26T21:18:02.146Z,5.00
2018-09-26T21:20:31.241Z,5.33
2018-09-26T21:23:00.487Z,4.97
2018-09-26T21:25:29.568Z,5.10
2018-09-26T21:27:58.850Z,4.97
2018-09-26T21:30:28.041Z,9.53
2018-09-26T21:32:57.254Z,10.17
2018-09-26T21:35:26.534Z,10.40
2018-09-26T21:37:56.139Z,9.57
2018-09-26T21:40:25.302Z,10.20
2018-09-26T21:42:55.478Z,10.47
2018-09-26T21:45:24.674Z,10.67
2018-09-26T21:47:53.876Z,10.60
2018-09-26T21:50:23.275Z,10.83
2018-09-26T21:52:52.437Z,10.77
2018-09-26T21:55:21.617Z,10.50
2018-09-26T21:57:50.812Z,10.10
2018-09-26T22:00:20.036Z,10.07
2018-09-26T22:02:49.255Z,9.67
2018-09-26T22:05:18.414Z,9.80
2018-09-26T22:07:47.705Z,10.10
2018-09-26T22:10:16.867Z,10.10
2018-09-26T22:12:46.036Z,11.33
2018-09-26T22:15:19.515Z,11.67
2018-09-26T22:17:48.732Z,11.67
2018-09-26T22:20:18.171Z,11.37
2018-09-26T22:22:47.653Z,11.30
2018-09-26T22:25:16.999Z,10.33
2018-09-26T22:27:46.579Z,9.97
2018-09-26T22:30:15.779Z,10.83
2018-09-26T22:32:44.937Z,9.90
2018-09-26T22:35:14.161Z,10.50
2018-09-26T22:37:43.305Z,11.43
2018-09-26T22:40:12.526Z,10.63
2018-09-26T22:42:41.767Z,10.27
2018-09-26T22:45:10.985Z,11.30
2018-09-26T22:47:40.110Z,10.37
2018-09-26T22:50:09.360Z,10.57
2018-09-26T22:52:38.577Z,10.27
2018-09-26T22:55:07.833Z,10.23
2018-09-26T22:57:37.078Z,9.97
2018-09-26T23:00:06.350Z,10.83
2018-09-26T23:02:35.529Z,10.57
2018-09-26T23:05:04.796Z,11.07
2018-09-26T23:07:33.938Z,10.33
2018-09-26T23:10:03.150Z,10.10
2018-09-26T23:12:32.328Z,10.30
2018-09-26T23:15:01.558Z,9.70
2018-09-26T23:17:30.750Z,9.90
2018-09-26T23:19:59.953Z,9.57
2018-09-26T23:22:29.104Z,9.67
2018-09-26T23:24:59.377Z,9.80
2018-09-26T23:27:28.537Z,10.23
2018-09-26T23:29:57.701Z,10.87
2018-09-26T23:32:26.970Z,10.60
2018-09-26T23:34:56.145Z,11.10
2018-09-26T23:37:25.374Z,10.93
2018-09-26T23:39:54.644Z,10.80
2018-09-26T23:42:23.777Z,11.67
2018-09-26T23:44:52.953Z,11.93
2018-09-26T23:47:22.134Z,11.87
2018-09-26T23:49:51.262Z,11.37
2018-09-26T23:52:20.442Z,11.53
2018-09-26T23:54:49.792Z,12.07
2018-09-26T23:57:19.119Z,10.97
2018-09-26T23:59:48.342Z,10.80
